createdAt,value
2019-01-11T00:04:37.883Z,41.07
2019-01-11T00:09:41.647Z,37.97
2019-01-11T00:14:45.315Z,36.83
2019-01-11T00:19:49.028Z,40.00
2019-01-11T00:24:52.732Z,35.60
2019-01-11T00:29:56.473Z,35.83
2019-01-11T00:35:00.214Z,36.67
2019-01-11T00:40:04.706Z,37.30
2019-01-11T00:45:08.611Z,37.83
2019-01-11T00:50:12.376Z,36.17
2019-01-11T00:55:16.034Z,34.23
2019-01-11T01:00:20.412Z,35.60
2019-01-11T01:05:24.147Z,35.37
2019-01-11T01:10:27.827Z,33.30
2019-01-11T01:15:31.473Z,31.67
2019-01-11T01:20:35.220Z,32.37
2019-01-11T01:25:38.944Z,30.60
2019-01-11T01:30:42.582Z,32.10
2019-01-11T01:35:46.259Z,29.13
2019-01-11T01:40:49.986Z,27.50
2019-01-11T01:45:53.950Z,30.00
2019-01-11T01:50:57.618Z,29.67
2019-01-11T01:56:01.264Z,25.57
2019-01-11T02:01:05.011Z,27.83
2019-01-11T02:06:08.741Z,27.23
2019-01-11T02:11:12.497Z,27.23
2019-01-11T02:16:16.220Z,25.67
2019-01-11T02:21:19.867Z,22.50
2019-01-11T02:26:23.598Z,20.13
2019-01-11T02:31:27.346Z,19.27
2019-01-11T02:36:31.005Z,21.13
2019-01-11T02:41:34.664Z,17.67
2019-01-11T02:46:38.331Z,16.30
2019-01-11T02:51:41.993Z,15.43
2019-01-11T02:56:45.736Z,12.57
2019-01-11T03:01:49.470Z,12.97
2019-01-11T03:06:53.116Z,9.80
2019-01-11T03:11:56.851Z,10.63
2019-01-11T03:17:00.500Z,10.30
2019-01-11T03:22:04.234Z,11.23
2019-01-11T03:27:07.884Z,10.40
2019-01-11T03:32:11.537Z,9.50
2019-01-11T03:37:15.176Z,9.80
2019-01-11T03:42:19.096Z,9.43
2019-01-11T03:47:22.823Z,9.90
2019-01-11T03:52:26.567Z,11.27
2019-01-11T03:57:30.311Z,11.77
2019-01-11T04:02:33.948Z,12.63
2019-01-11T04:07:37.606Z,13.30
2019-01-11T04:12:41.277Z,12.77
2019-01-11T04:17:47.180Z,11.40
2019-01-11T04:22:53.739Z,11.13
2019-01-11T04:27:57.413Z,10.07
2019-01-11T04:33:01.039Z,9.97
2019-01-11T04:38:04.719Z,9.67
2019-01-11T04:43:08.444Z,9.77
2019-01-11T04:48:12.162Z,10.20
2019-01-11T04:53:15.950Z,9.37
2019-01-11T04:58:19.611Z,9.97
2019-01-11T05:03:23.388Z,9.53
2019-01-11T05:08:27.048Z,8.97
2019-01-11T05:13:46.704Z,8.77
2019-01-11T05:18:50.353Z,9.10
2019-01-11T05:23:54.079Z,8.60
2019-01-11T05:28:57.717Z,8.27
2019-01-11T05:34:01.360Z,8.13
2019-01-11T05:39:06.949Z,9.03
2019-01-11T05:44:10.664Z,8.47
2019-01-11T05:49:14.317Z,9.80
2019-01-11T05:54:17.961Z,10.73
2019-01-11T05:59:21.686Z,12.03
2019-01-11T06:04:43.281Z,11.87
2019-01-11T06:09:47.099Z,12.77
2019-01-11T06:14:50.831Z,15.13
2019-01-11T06:19:54.480Z,13.63
2019-01-11T06:24:58.139Z,14.97
2019-01-11T06:30:01.792Z,14.73
2019-01-11T06:35:06.288Z,15.90
2019-01-11T06:40:10.307Z,14.90
2019-01-11T06:45:13.946Z,18.77
2019-01-11T06:50:17.878Z,18.33
2019-01-11T06:55:21.548Z,17.67
2019-01-11T07:00:25.280Z,17.67
2019-01-11T07:05:29.010Z,20.67
2019-01-11T07:10:32.655Z,18.70
2019-01-11T07:15:36.395Z,20.17
2019-01-11T07:20:42.964Z,20.07
2019-01-11T07:25:45.455Z,20.37
2019-01-11T07:31:17.255Z,20.00
2019-01-11T07:36:46.404Z,20.13
2019-01-11T07:41:50.189Z,21.37
2019-01-11T07:46:54.003Z,21.57
2019-01-11T07:51:57.772Z,23.60
2019-01-11T07:57:01.446Z,22.33
2019-01-11T08:02:05.189Z,20.83
2019-01-11T08:07:08.916Z,20.03
2019-01-11T08:12:13.058Z,21.70
2019-01-11T08:17:16.776Z,19.87
2019-01-11T08:22:48.820Z,25.97
2019-01-11T08:27:52.472Z,26.20
2019-01-11T08:32:56.146Z,26.80
2019-01-11T08:37:59.855Z,26.67
2019-01-11T08:43:03.578Z,28.27
2019-01-11T08:48:07.309Z,30.03
2019-01-11T08:53:11.068Z,27.27
2019-01-11T08:58:14.720Z,28.73
2019-01-11T09:03:18.567Z,29.70
2019-01-11T09:08:22.252Z,28.07
2019-01-11T09:13:26.114Z,31.43
2019-01-11T09:18:36.378Z,29.73
2019-01-11T09:23:40.027Z,32.10
2019-01-11T09:28:44.334Z,32.83
2019-01-11T09:33:48.001Z,33.33
2019-01-11T09:38:51.746Z,32.30
2019-01-11T09:43:55.473Z,29.63
2019-01-11T09:48:59.115Z,28.40
2019-01-11T09:54:03.040Z,28.30
2019-01-11T09:59:06.698Z,24.43
2019-01-11T10:04:14.371Z,26.40
2019-01-11T10:09:18.031Z,24.27
2019-01-11T10:14:21.688Z,23.50
2019-01-11T10:19:25.337Z,24.23
2019-01-11T10:24:29.048Z,24.73
2019-01-11T10:29:32.799Z,22.63
2019-01-11T10:34:36.517Z,24.53
2019-01-11T10:39:40.172Z,21.67
2019-01-11T10:44:43.873Z,20.47
2019-01-11T10:49:47.612Z,25.90
2019-01-11T10:54:51.276Z,28.27
2019-01-11T10:59:54.957Z,30.10
2019-01-11T11:04:58.631Z,31.90
2019-01-11T11:10:02.366Z,36.37
2019-01-11T11:15:06.979Z,36.10
2019-01-11T11:20:11.831Z,34.60
2019-01-11T11:25:21.008Z,35.87
2019-01-11T11:30:25.778Z,34.43
2019-01-11T11:35:29.853Z,35.63
2019-01-11T11:40:33.574Z,33.00
2019-01-11T11:45:37.223Z,40.30
2019-01-11T11:50:40.885Z,42.67
2019-01-11T11:55:44.544Z,34.23
2019-01-11T12:00:48.295Z,37.53
2019-01-11T12:05:51.943Z,32.90
2019-01-11T12:10:55.607Z,33.60
2019-01-11T12:15:59.259Z,33.80
2019-01-11T12:21:02.994Z,31.13
2019-01-11T12:26:06.966Z,30.33
2019-01-11T12:31:10.770Z,27.80
2019-01-11T12:36:14.515Z,31.80
2019-01-11T12:41:18.203Z,31.07
2019-01-11T12:46:21.955Z,30.23
2019-01-11T12:51:25.691Z,27.13
2019-01-11T12:56:29.372Z,29.63
2019-01-11T13:01:33.119Z,29.07
2019-01-11T13:06:36.829Z,24.40
2019-01-11T13:11:40.482Z,25.67
2019-01-11T13:16:44.259Z,22.77
2019-01-11T13:21:47.922Z,20.53
2019-01-11T13:26:51.846Z,24.53
2019-01-11T13:31:55.627Z,23.53
2019-01-11T13:36:59.380Z,19.10
2019-01-11T13:42:03.111Z,16.13
2019-01-11T13:47:06.887Z,14.73
2019-01-11T13:52:10.716Z,15.83
2019-01-11T13:57:14.379Z,12.43
2019-01-11T14:02:18.048Z,9.97
2019-01-11T14:07:22.665Z,9.65
2019-01-11T14:12:26.459Z,13.93
2019-01-11T14:17:30.206Z,11.73
2019-01-11T14:22:35.709Z,9.97
2019-01-11T14:27:39.359Z,8.10
2019-01-11T14:32:43.095Z,7.47
2019-01-11T14:37:46.820Z,5.67
2019-01-11T14:42:50.579Z,5.17
2019-01-11T14:47:54.237Z,4.97
2019-01-11T14:52:57.980Z,5.43
2019-01-11T14:58:01.712Z,5.90
2019-01-11T15:03:05.379Z,5.97
2019-01-11T15:08:09.154Z,7.03
2019-01-11T15:13:12.920Z,6.33
2019-01-11T15:18:16.691Z,5.77
2019-01-11T15:23:20.432Z,8.35
2019-01-11T15:28:24.163Z,7.60
2019-01-11T15:33:27.833Z,7.42
2019-01-11T16:13:19.502Z,7.10
2019-01-11T16:18:27.051Z,10.03
2019-01-11T16:23:30.730Z,12.13
2019-01-11T16:28:34.503Z,8.10
2019-01-11T16:33:38.227Z,9.13
2019-01-11T16:38:41.972Z,8.20
2019-01-11T16:43:45.636Z,7.78
2019-01-11T16:48:49.486Z,7.25
2019-01-11T16:53:53.297Z,7.87
2019-01-11T16:58:58.507Z,7.67
2019-01-11T17:04:02.263Z,8.90
2019-01-11T17:09:07.222Z,7.83
2019-01-11T17:14:10.922Z,6.40
2019-01-11T17:19:14.644Z,7.07
2019-01-11T17:24:18.292Z,9.77
2019-01-11T17:29:22.015Z,8.57
2019-01-11T17:34:25.744Z,9.57
2019-01-11T17:39:29.407Z,10.60
2019-01-11T17:44:33.221Z,8.73
2019-01-11T17:49:36.971Z,9.80
2019-01-11T17:54:40.754Z,7.83
2019-01-11T17:59:44.468Z,7.80
2019-01-11T18:04:48.191Z,11.80
2019-01-11T18:09:51.867Z,7.13
2019-01-11T18:14:55.603Z,9.63
2019-01-11T18:19:59.339Z,12.90
2019-01-11T18:25:03.088Z,11.87
2019-01-11T18:30:07.684Z,11.90
2019-01-11T18:35:11.538Z,8.90
2019-01-11T18:40:16.783Z,13.40
2019-01-11T18:45:20.529Z,11.77
2019-01-11T18:50:24.274Z,12.47
2019-01-11T18:55:28.060Z,16.30
2019-01-11T19:00:31.726Z,19.07
2019-01-11T19:05:35.504Z,20.03
2019-01-11T19:10:39.268Z,19.63
2019-01-11T19:15:43.022Z,17.00
2019-01-11T19:20:46.672Z,16.30
2019-01-11T19:25:50.323Z,13.47
2019-01-11T19:30:55.595Z,15.30
2019-01-11T19:35:59.415Z,20.70
2019-01-11T19:41:03.209Z,21.43
2019-01-11T19:46:06.979Z,18.37
2019-01-11T19:51:10.765Z,19.07
2019-01-11T19:56:14.512Z,20.57
2019-01-11T20:01:18.296Z,23.37
2019-01-11T20:06:22.128Z,15.93
2019-01-11T20:11:26.108Z,19.43
2019-01-11T20:16:30.037Z,18.07
2019-01-11T20:21:33.704Z,21.17
2019-01-11T20:26:40.263Z,19.20
2019-01-11T20:31:43.907Z,15.87
2019-01-11T20:36:53.922Z,21.37
2019-01-11T20:41:57.798Z,25.63
2019-01-11T20:47:01.680Z,22.03
2019-01-11T20:52:05.329Z,18.47
2019-01-11T20:57:09.036Z,26.60
2019-01-11T21:02:12.886Z,15.03
2019-01-11T21:07:16.647Z,23.87
2019-01-11T21:12:20.309Z,25.57
2019-01-11T21:17:24.037Z,19.10
2019-01-11T21:22:27.707Z,23.90
2019-01-11T21:27:31.507Z,27.67
2019-01-11T21:32:35.259Z,23.40
2019-01-11T21:37:39.049Z,22.63
2019-01-11T21:42:42.689Z,27.27
2019-01-11T21:47:46.400Z,25.40
2019-01-11T21:52:50.359Z,31.50
2019-01-11T21:57:54.115Z,25.23
2019-01-11T22:02:57.835Z,22.93
2019-01-11T22:08:01.595Z,34.23
2019-01-11T22:13:05.319Z,35.27
2019-01-11T22:18:08.986Z,35.83
2019-01-11T22:23:12.659Z,25.60
2019-01-11T22:28:16.403Z,24.97
2019-01-11T22:33:20.133Z,24.73
2019-01-11T22:38:23.810Z,23.93
2019-01-11T22:43:27.532Z,26.47
2019-01-11T22:48:31.315Z,27.27
2019-01-11T22:53:34.967Z,25.60
2019-01-11T22:58:38.836Z,23.97
2019-01-11T23:03:48.014Z,19.67
2019-01-11T23:08:51.740Z,21.67
2019-01-11T23:13:55.523Z,31.33
2019-01-11T23:18:59.287Z,30.17
2019-01-11T23:24:02.999Z,24.43
2019-01-11T23:29:06.725Z,26.63
2019-01-11T23:34:10.450Z,24.87
2019-01-11T23:39:14.183Z,31.10
2019-01-11T23:44:17.854Z,20.40
2019-01-11T23:49:21.499Z,28.43
2019-01-11T23:54:25.155Z,28.93
2019-01-11T23:59:28.880Z,24.73
